BAW744 EGLL-LSGG
Flight info
| Callsign | BAW744 |
|---|---|
| Flight time | N/A |
| Altitude | 39000 |
| Route | MODMI M185 MID UL612 VEULE DCT PEKIM DCT PILUL DCT PIMUP/N0457F270 DCT PIXIS DCT PIBAT/N0430F230 DCT LUSAR |
| Aircraft | B789/H-SDE1E2E3FGHIJ2J3J4J5M1RWXY/LB1D1 |
Departure
| Time | 2026-05-05 16:47 |
|---|---|
| Airport | London Heathrow Airport (EGLL) |
Arrival
| Time | N/A |
|---|---|
| Airport | Geneva International Airport (LSGG) |
| Time | Latitude | Longitude | Altitude | Speed | Heading |
|---|---|---|---|---|---|
| 2026-05-05 16:27 | 51.47115 | -0.48234 | 91 ft | 0 kts | 90° |
| 2026-05-05 16:39 | 51.47115 | -0.48237 | 91 ft | 2 kts | 90° |
| 2026-05-05 16:39 | 51.47115 | -0.48269 | 87 ft | 3 kts | 92° |
| 2026-05-05 16:39 | 51.47117 | -0.48301 | 88 ft | 3 kts | 96° |
| 2026-05-05 16:40 | 51.47120 | -0.48330 | 89 ft | 3 kts | 111° |
| 2026-05-05 16:40 | 51.47128 | -0.48349 | 89 ft | 2 kts | 142° |
| 2026-05-05 16:40 | 51.47140 | -0.48359 | 91 ft | 2 kts | 167° |
| 2026-05-05 16:40 | 51.47150 | -0.48361 | 91 ft | 1 kts | 175° |
| 2026-05-05 16:41 | 51.47158 | -0.48362 | 90 ft | 1 kts | 177° |
| 2026-05-05 16:41 | 51.47166 | -0.48362 | 90 ft | 1 kts | 179° |
| 2026-05-05 16:41 | 51.47168 | -0.48362 | 90 ft | 0 kts | 179° |
| 2026-05-05 16:42 | 51.47147 | -0.48362 | 91 ft | 6 kts | 179° |
| 2026-05-05 16:43 | 51.47097 | -0.48360 | 89 ft | 8 kts | 179° |
| 2026-05-05 16:43 | 51.47052 | -0.48359 | 87 ft | 10 kts | 180° |
| 2026-05-05 16:43 | 51.47050 | -0.48359 | 87 ft | 10 kts | 180° |
| 2026-05-05 16:44 | 51.46977 | -0.48359 | 87 ft | 12 kts | 180° |
| 2026-05-05 16:44 | 51.46888 | -0.48359 | 89 ft | 14 kts | 180° |
| 2026-05-05 16:44 | 51.46786 | -0.48357 | 90 ft | 14 kts | 180° |
| 2026-05-05 16:44 | 51.46754 | -0.48386 | 91 ft | 3 kts | 243° |
| 2026-05-05 16:45 | 51.46730 | -0.48451 | 92 ft | 9 kts | 228° |
| 2026-05-05 16:45 | 51.46698 | -0.48471 | 91 ft | 8 kts | 185° |
| 2026-05-05 16:45 | 51.46634 | -0.48470 | 88 ft | 10 kts | 179° |
| 2026-05-05 16:45 | 51.46557 | -0.48468 | 89 ft | 12 kts | 181° |
| 2026-05-05 16:46 | 51.46492 | -0.48435 | 92 ft | 11 kts | 127° |
| 2026-05-05 16:46 | 51.46480 | -0.48293 | 89 ft | 6 kts | 89° |
| 2026-05-05 16:46 | 51.46481 | -0.48277 | 89 ft | 4 kts | 89° |
| 2026-05-05 16:46 | 51.46482 | -0.47939 | 89 ft | 64 kts | 89° |
| 2026-05-05 16:47 | 51.46485 | -0.46845 | 93 ft | 129 kts | 89° |
| 2026-05-05 16:47 | 51.46484 | -0.45101 | 177 ft | 176 kts | 91° |
| 2026-05-05 16:47 | 51.46445 | -0.43053 | 729 ft | 190 kts | 91° |
| 2026-05-05 16:47 | 51.46357 | -0.40908 | 1444 ft | 194 kts | 95° |
| 2026-05-05 16:48 | 51.46046 | -0.38822 | 2087 ft | 196 kts | 109° |
| 2026-05-05 16:48 | 51.45337 | -0.36991 | 2836 ft | 193 kts | 131° |
| 2026-05-05 16:48 | 51.44209 | -0.35866 | 3541 ft | 195 kts | 159° |
| 2026-05-05 16:48 | 51.42838 | -0.35355 | 3902 ft | 210 kts | 171° |
| 2026-05-05 16:49 | 51.41362 | -0.35984 | 4013 ft | 233 kts | 209° |
| 2026-05-05 16:49 | 51.39944 | -0.37411 | 4410 ft | 250 kts | 211° |
| 2026-05-05 16:49 | 51.38305 | -0.38597 | 4910 ft | 265 kts | 200° |
| 2026-05-05 16:49 | 51.36516 | -0.39423 | 5615 ft | 271 kts | 195° |
| 2026-05-05 16:50 | 51.34684 | -0.40257 | 6380 ft | 275 kts | 198° |
| 2026-05-05 16:50 | 51.32850 | -0.41223 | 7119 ft | 278 kts | 199° |
| 2026-05-05 16:50 | 51.31080 | -0.42489 | 7804 ft | 282 kts | 208° |
| 2026-05-05 16:50 | 51.29334 | -0.43896 | 8555 ft | 285 kts | 207° |
| 2026-05-05 16:51 | 51.27536 | -0.45280 | 9348 ft | 288 kts | 206° |
| 2026-05-05 16:51 | 51.25725 | -0.46701 | 10093 ft | 291 kts | 207° |
| 2026-05-05 16:51 | 51.23914 | -0.48163 | 10562 ft | 304 kts | 207° |
| 2026-05-05 16:51 | 51.21968 | -0.49722 | 10961 ft | 321 kts | 207° |
| 2026-05-05 16:52 | 51.19912 | -0.51302 | 11368 ft | 336 kts | 206° |
| 2026-05-05 16:52 | 51.17747 | -0.52953 | 11774 ft | 352 kts | 206° |
| 2026-05-05 16:52 | 51.15489 | -0.54702 | 12167 ft | 367 kts | 206° |
| 2026-05-05 16:52 | 51.13154 | -0.56519 | 12533 ft | 382 kts | 206° |
| 2026-05-05 16:53 | 51.10754 | -0.58374 | 13094 ft | 391 kts | 205° |
| 2026-05-05 16:53 | 51.08246 | -0.60083 | 13684 ft | 396 kts | 196° |
| 2026-05-05 16:53 | 51.05499 | -0.60652 | 14283 ft | 399 kts | 179° |
| 2026-05-05 16:53 | 51.02770 | -0.59931 | 14902 ft | 400 kts | 162° |
| 2026-05-05 16:54 | 51.00268 | -0.58024 | 15525 ft | 402 kts | 147° |
| 2026-05-05 16:54 | 50.98011 | -0.55357 | 16156 ft | 404 kts | 140° |
| 2026-05-05 16:54 | 50.95878 | -0.52516 | 16759 ft | 407 kts | 139° |
| 2026-05-05 16:54 | 50.93642 | -0.49706 | 17301 ft | 412 kts | 143° |
| 2026-05-05 16:55 | 50.91222 | -0.47201 | 17875 ft | 416 kts | 147° |
| 2026-05-05 16:55 | 50.88724 | -0.44805 | 18395 ft | 420 kts | 147° |
| 2026-05-05 16:55 | 50.86275 | -0.42245 | 18869 ft | 424 kts | 144° |
| 2026-05-05 16:55 | 50.83860 | -0.39552 | 19358 ft | 427 kts | 144° |
| 2026-05-05 16:56 | 50.81397 | -0.36897 | 19843 ft | 430 kts | 146° |
| 2026-05-05 16:56 | 50.78873 | -0.34296 | 20309 ft | 433 kts | 146° |
| 2026-05-05 16:56 | 50.76332 | -0.31656 | 20776 ft | 436 kts | 145° |
| 2026-05-05 16:56 | 50.74658 | -0.29875 | 21086 ft | 438 kts | 145° |
| 2026-05-05 16:57 | 50.71259 | -0.26255 | 21710 ft | 442 kts | 145° |
| 2026-05-05 16:57 | 50.68724 | -0.23600 | 22136 ft | 445 kts | 146° |
| 2026-05-05 16:57 | 50.66087 | -0.20851 | 22581 ft | 448 kts | 146° |
| 2026-05-05 16:57 | 50.63507 | -0.18145 | 23007 ft | 450 kts | 145° |
| 2026-05-05 16:58 | 50.60915 | -0.15420 | 23432 ft | 453 kts | 145° |
| 2026-05-05 16:58 | 50.58280 | -0.12665 | 23791 ft | 455 kts | 145° |
| 2026-05-05 16:58 | 50.55632 | -0.09907 | 24176 ft | 457 kts | 146° |
| 2026-05-05 16:58 | 50.52976 | -0.07141 | 24578 ft | 457 kts | 146° |
| 2026-05-05 16:59 | 50.50331 | -0.04383 | 24965 ft | 457 kts | 146° |
| 2026-05-05 16:59 | 50.47673 | -0.01616 | 25361 ft | 458 kts | 146° |
| 2026-05-05 16:59 | 50.45013 | 0.01143 | 25748 ft | 458 kts | 146° |
| 2026-05-05 16:59 | 50.42378 | 0.03873 | 26151 ft | 458 kts | 146° |
| 2026-05-05 17:00 | 50.39717 | 0.06629 | 26536 ft | 459 kts | 146° |
| 2026-05-05 17:00 | 50.37044 | 0.09394 | 26918 ft | 460 kts | 146° |
| 2026-05-05 17:00 | 50.34481 | 0.12040 | 27304 ft | 461 kts | 147° |
| 2026-05-05 17:00 | 50.31799 | 0.14806 | 27681 ft | 462 kts | 147° |
| 2026-05-05 17:01 | 50.29113 | 0.17572 | 28041 ft | 463 kts | 147° |
| 2026-05-05 17:01 | 50.26416 | 0.20345 | 28408 ft | 465 kts | 147° |
| 2026-05-05 17:01 | 50.23707 | 0.23128 | 28777 ft | 467 kts | 147° |
| 2026-05-05 17:01 | 50.20977 | 0.25928 | 29153 ft | 468 kts | 147° |
| 2026-05-05 17:02 | 50.18245 | 0.28729 | 29519 ft | 470 kts | 147° |
| 2026-05-05 17:02 | 50.15510 | 0.31549 | 29916 ft | 472 kts | 147° |
| 2026-05-05 17:02 | 50.12812 | 0.34330 | 30221 ft | 474 kts | 147° |